sensor_id;sensor_type;location;lat;lon;timestamp;pressure;altitude;pressure_sealevel;temperature;humidity
46394;BME280;32099;53.588;10.176;2023-04-04T00:01:58;102879.59;;;0.26;60.68
46394;BME280;32099;53.588;10.176;2023-04-04T00:04:26;102874.16;;;0.28;61.24
46394;BME280;32099;53.588;10.176;2023-04-04T00:06:52;102877.78;;;0.27;60.92
46394;BME280;32099;53.588;10.176;2023-04-04T00:09:18;102877.75;;;0.28;61.29
46394;BME280;32099;53.588;10.176;2023-04-04T00:11:43;102864.31;;;0.28;61.35
46394;BME280;32099;53.588;10.176;2023-04-04T00:14:09;102870.53;;;0.29;60.68
46394;BME280;32099;53.588;10.176;2023-04-04T00:16:35;102857.06;;;0.30;60.78
46394;BME280;32099;53.588;10.176;2023-04-04T00:19:01;102862.41;;;0.30;60.83
46394;BME280;32099;53.588;10.176;2023-04-04T00:21:26;102859.81;;;0.29;61.34
46394;BME280;32099;53.588;10.176;2023-04-04T00:23:55;102858.94;;;0.28;60.71
46394;BME280;32099;53.588;10.176;2023-04-04T00:26:21;102855.38;;;0.28;61.20
46394;BME280;32099;53.588;10.176;2023-04-04T00:28:46;102855.50;;;0.25;61.38
46394;BME280;32099;53.588;10.176;2023-04-04T00:31:12;102860.06;;;0.23;61.22
46394;BME280;32099;53.588;10.176;2023-04-04T00:33:37;102857.44;;;0.21;61.27
46394;BME280;32099;53.588;10.176;2023-04-04T00:36:02;102851.22;;;0.21;61.38
46394;BME280;32099;53.588;10.176;2023-04-04T00:38:28;102845.97;;;0.18;62.46
46394;BME280;32099;53.588;10.176;2023-04-04T00:40:54;102848.84;;;0.13;62.00
46394;BME280;32099;53.588;10.176;2023-04-04T00:43:20;102848.13;;;0.08;62.29
46394;BME280;32099;53.588;10.176;2023-04-04T00:45:45;102839.31;;;0.06;62.38
46394;BME280;32099;53.588;10.176;2023-04-04T00:48:11;102837.41;;;0.08;62.33
46394;BME280;32099;53.588;10.176;2023-04-04T00:50:37;102837.28;;;0.11;62.13
46394;BME280;32099;53.588;10.176;2023-04-04T00:53:02;102837.28;;;0.11;62.30
46394;BME280;32099;53.588;10.176;2023-04-04T00:55:28;102837.38;;;0.09;62.75
46394;BME280;32099;53.588;10.176;2023-04-04T00:57:53;102827.69;;;0.05;62.11
46394;BME280;32099;53.588;10.176;2023-04-04T01:00:18;102833.16;;;0.02;62.48
46394;BME280;32099;53.588;10.176;2023-04-04T01:02:44;102835.84;;;0.02;62.51
46394;BME280;32099;53.588;10.176;2023-04-04T01:05:10;102828.72;;;0.01;62.41
46394;BME280;32099;53.588;10.176;2023-04-04T01:07:36;102827.75;;;0.04;62.39
46394;BME280;32099;53.588;10.176;2023-04-04T01:10:02;102832.22;;;0.03;62.48
46394;BME280;32099;53.588;10.176;2023-04-04T01:12:28;102825.00;;;0.05;62.48
46394;BME280;32099;53.588;10.176;2023-04-04T01:14:54;102830.38;;;0.05;62.34
46394;BME280;32099;53.588;10.176;2023-04-04T01:17:19;102825.88;;;0.06;62.67
46394;BME280;32099;53.588;10.176;2023-04-04T01:19:47;102824.13;;;0.05;62.75
46394;BME280;32099;53.588;10.176;2023-04-04T01:22:27;102819.91;;;-0.01;62.70
46394;BME280;32099;53.588;10.176;2023-04-04T01:24:55;102822.75;;;-0.06;63.21
46394;BME280;32099;53.588;10.176;2023-04-04T01:27:22;102819.13;;;-0.05;63.04
46394;BME280;32099;53.588;10.176;2023-04-04T01:29:47;102820.75;;;-0.01;62.99
46394;BME280;32099;53.588;10.176;2023-04-04T01:32:15;102814.59;;;-0.03;62.90
46394;BME280;32099;53.588;10.176;2023-04-04T01:35:12;102811.91;;;-0.03;63.00
46394;BME280;32099;53.588;10.176;2023-04-04T01:38:00;102809.28;;;-0.04;63.43
46394;BME280;32099;53.588;10.176;2023-04-04T01:40:34;102802.25;;;-0.07;64.15
46394;BME280;32099;53.588;10.176;2023-04-04T01:43:02;102793.69;;;-0.17;64.08
46394;BME280;32099;53.588;10.176;2023-04-04T01:45:28;102795.38;;;-0.14;63.76
46394;BME280;32099;53.588;10.176;2023-04-04T01:47:54;102794.25;;;-0.08;63.92
46394;BME280;32099;53.588;10.176;2023-04-04T01:50:21;102791.56;;;-0.08;63.72
46394;BME280;32099;53.588;10.176;2023-04-04T01:52:46;102795.13;;;-0.08;63.99
46394;BME280;32099;53.588;10.176;2023-04-04T01:55:12;102790.63;;;-0.07;63.76
46394;BME280;32099;53.588;10.176;2023-04-04T01:57:38;102795.19;;;-0.09;64.08
46394;BME280;32099;53.588;10.176;2023-04-04T02:00:03;102790.91;;;-0.13;64.66
46394;BME280;32099;53.588;10.176;2023-04-04T02:02:29;102783.81;;;-0.16;64.54
46394;BME280;32099;53.588;10.176;2023-04-04T02:04:55;102777.59;;;-0.17;65.04
46394;BME280;32099;53.588;10.176;2023-04-04T02:07:20;102778.53;;;-0.18;64.85
46394;BME280;32099;53.588;10.176;2023-04-04T02:09:45;102774.03;;;-0.17;64.92
46394;BME280;32099;53.588;10.176;2023-04-04T02:12:11;102770.50;;;-0.18;64.68
46394;BME280;32099;53.588;10.176;2023-04-04T02:14:36;102770.41;;;-0.16;64.40
46394;BME280;32099;53.588;10.176;2023-04-04T02:17:01;102775.59;;;-0.11;64.10
46394;BME280;32099;53.588;10.176;2023-04-04T02:19:27;102772.66;;;-0.05;64.17
46394;BME280;32099;53.588;10.176;2023-04-04T02:21:52;102783.09;;;0.03;64.10
46394;BME280;32099;53.588;10.176;2023-04-04T02:24:18;102772.97;;;0.09;63.78
46394;BME280;32099;53.588;10.176;2023-04-04T02:26:43;102772.22;;;0.06;64.09
46394;BME280;32099;53.588;10.176;2023-04-04T02:29:08;102768.84;;;0.01;64.53
46394;BME280;32099;53.588;10.176;2023-04-04T02:31:34;102768.97;;;-0.03;65.30
46394;BME280;32099;53.588;10.176;2023-04-04T02:33:59;102770.09;;;-0.08;64.28
46394;BME280;32099;53.588;10.176;2023-04-04T02:36:24;102771.72;;;-0.04;64.56
46394;BME280;32099;53.588;10.176;2023-04-04T02:38:50;102773.59;;;-0.06;64.85
46394;BME280;32099;53.588;10.176;2023-04-04T02:41:15;102778.09;;;-0.07;64.72
46394;BME280;32099;53.588;10.176;2023-04-04T02:43:41;102777.09;;;-0.04;64.24
46394;BME280;32099;53.588;10.176;2023-04-04T02:46:06;102770.72;;;-0.02;64.60
46394;BME280;32099;53.588;10.176;2023-04-04T02:48:31;102774.41;;;-0.04;64.74
46394;BME280;32099;53.588;10.176;2023-04-04T02:50:57;102775.34;;;-0.05;64.61
46394;BME280;32099;53.588;10.176;2023-04-04T02:53:23;102776.34;;;-0.08;64.53
46394;BME280;32099;53.588;10.176;2023-04-04T02:55:48;102771.94;;;-0.09;64.63
46394;BME280;32099;53.588;10.176;2023-04-04T02:58:13;102773.72;;;-0.09;64.82
46394;BME280;32099;53.588;10.176;2023-04-04T03:00:38;102773.72;;;-0.09;64.24
46394;BME280;32099;53.588;10.176;2023-04-04T03:03:04;102775.53;;;-0.10;64.81
46394;BME280;32099;53.588;10.176;2023-04-04T03:05:30;102781.75;;;-0.09;64.46
46394;BME280;32099;53.588;10.176;2023-04-04T03:07:58;102775.47;;;-0.08;64.98
46394;BME280;32099;53.588;10.176;2023-04-04T03:10:25;102781.75;;;-0.09;64.88
46394;BME280;32099;53.588;10.176;2023-04-04T03:12:53;102771.94;;;-0.09;64.73
46394;BME280;32099;53.588;10.176;2023-04-04T03:15:19;102776.28;;;-0.06;64.54
46394;BME280;32099;53.588;10.176;2023-04-04T03:17:45;102775.22;;;-0.02;64.62
46394;BME280;32099;53.588;10.176;2023-04-04T03:20:11;102783.19;;;-0.01;64.83
46394;BME280;32099;53.588;10.176;2023-04-04T03:22:37;102771.72;;;-0.04;65.06
46394;BME280;32099;53.588;10.176;2023-04-04T03:25:02;102778.28;;;-0.11;65.07
46394;BME280;32099;53.588;10.176;2023-04-04T03:27:29;102773.09;;;-0.16;65.29
46394;BME280;32099;53.588;10.176;2023-04-04T03:29:56;102783.91;;;-0.18;65.03
46394;BME280;32099;53.588;10.176;2023-04-04T03:32:21;102778.47;;;-0.16;65.30
46394;BME280;32099;53.588;10.176;2023-04-04T03:34:47;102777.59;;;-0.17;65.98
46394;BME280;32099;53.588;10.176;2023-04-04T03:37:12;102776.03;;;-0.22;65.47
46394;BME280;32099;53.588;10.176;2023-04-04T03:39:37;102768.13;;;-0.25;65.39
46394;BME280;32099;53.588;10.176;2023-04-04T03:42:03;102770.75;;;-0.24;66.18
46394;BME280;32099;53.588;10.176;2023-04-04T03:44:28;102771.63;;;-0.23;66.02
46394;BME280;32099;53.588;10.176;2023-04-04T03:46:53;102768.94;;;-0.23;65.83
46394;BME280;32099;53.588;10.176;2023-04-04T03:49:19;102768.00;;;-0.22;66.17
46394;BME280;32099;53.588;10.176;2023-04-04T03:51:44;102778.00;;;-0.26;66.67
46394;BME280;32099;53.588;10.176;2023-04-04T03:54:09;102766.31;;;-0.25;66.09
46394;BME280;32099;53.588;10.176;2023-04-04T03:56:35;102768.84;;;-0.22;66.09
46394;BME280;32099;53.588;10.176;2023-04-04T03:59:00;102767.00;;;-0.20;66.00
46394;BME280;32099;53.588;10.176;2023-04-04T04:01:25;102758.22;;;-0.23;66.17
46394;BME280;32099;53.588;10.176;2023-04-04T04:03:51;102757.47;;;-0.27;66.91
46394;BME280;32099;53.588;10.176;2023-04-04T04:06:16;102760.16;;;-0.27;66.32
46394;BME280;32099;53.588;10.176;2023-04-04T04:08:41;102759.03;;;-0.21;66.10
46394;BME280;32099;53.588;10.176;2023-04-04T04:11:07;102753.59;;;-0.20;65.87
46394;BME280;32099;53.588;10.176;2023-04-04T04:13:33;102757.16;;;-0.19;66.60
46394;BME280;32099;53.588;10.176;2023-04-04T04:16:01;102758.00;;;-0.19;66.24
46394;BME280;32099;53.588;10.176;2023-04-04T04:18:27;102750.91;;;-0.20;65.75
46394;BME280;32099;53.588;10.176;2023-04-04T04:20:56;102757.19;;;-0.21;65.95
46394;BME280;32099;53.588;10.176;2023-04-04T04:23:26;102746.47;;;-0.21;65.68
46394;BME280;32099;53.588;10.176;2023-04-04T04:25:51;102756.25;;;-0.20;65.74
46394;BME280;32099;53.588;10.176;2023-04-04T04:28:17;102760.69;;;-0.19;65.72
46394;BME280;32099;53.588;10.176;2023-04-04T04:30:42;102761.69;;;-0.21;65.99
46394;BME280;32099;53.588;10.176;2023-04-04T04:33:08;102763.56;;;-0.23;65.67
46394;BME280;32099;53.588;10.176;2023-04-04T04:35:36;102754.59;;;-0.22;66.38
46394;BME280;32099;53.588;10.176;2023-04-04T04:38:03;102761.94;;;-0.27;65.95
46394;BME280;32099;53.588;10.176;2023-04-04T04:40:29;102761.00;;;-0.26;66.22
46394;BME280;32099;53.588;10.176;2023-04-04T04:42:54;102760.16;;;-0.27;66.26
46394;BME280;32099;53.588;10.176;2023-04-04T04:45:20;102758.28;;;-0.25;65.81
46394;BME280;32099;53.588;10.176;2023-04-04T04:47:45;102754.47;;;-0.19;66.81
46394;BME280;32099;53.588;10.176;2023-04-04T04:50:10;102754.41;;;-0.18;65.92
46394;BME280;32099;53.588;10.176;2023-04-04T04:52:36;102756.03;;;-0.13;66.03
46394;BME280;32099;53.588;10.176;2023-04-04T04:55:02;102756.06;;;-0.15;65.87
46394;BME280;32099;53.588;10.176;2023-04-04T04:57:27;102750.66;;;-0.13;65.78
46394;BME280;32099;53.588;10.176;2023-04-04T04:59:53;102759.66;;;-0.14;66.00
46394;BME280;32099;53.588;10.176;2023-04-04T05:02:18;102753.19;;;-0.10;65.81
46394;BME280;32099;53.588;10.176;2023-04-04T05:04:43;102750.41;;;-0.07;65.81
46394;BME280;32099;53.588;10.176;2023-04-04T05:07:09;102756.50;;;-0.04;65.72
46394;BME280;32099;53.588;10.176;2023-04-04T05:09:36;102754.63;;;-0.02;65.44
46394;BME280;32099;53.588;10.176;2023-04-04T05:12:01;102753.69;;;-0.01;65.47
46394;BME280;32099;53.588;10.176;2023-04-04T05:14:27;102758.19;;;-0.01;65.09
46394;BME280;32099;53.588;10.176;2023-04-04T05:16:52;102759.06;;;-0.01;65.43
46394;BME280;32099;53.588;10.176;2023-04-04T05:19:18;102758.03;;;0.02;65.66
46394;BME280;32099;53.588;10.176;2023-04-04T05:21:43;102753.56;;;0.03;65.51
46394;BME280;32099;53.588;10.176;2023-04-04T05:24:08;102755.31;;;0.04;65.16
46394;BME280;32099;53.588;10.176;2023-04-04T05:26:34;102755.13;;;0.08;65.39
46394;BME280;32099;53.588;10.176;2023-04-04T05:28:59;102748.81;;;0.09;65.28
46394;BME280;32099;53.588;10.176;2023-04-04T05:31:24;102752.31;;;0.11;65.62
46394;BME280;32099;53.588;10.176;2023-04-04T05:33:50;102756.88;;;0.09;65.22
46394;BME280;32099;53.588;10.176;2023-04-04T05:36:16;102754.81;;;0.16;65.19
46394;BME280;32099;53.588;10.176;2023-04-04T05:38:41;102756.34;;;0.22;65.07
46394;BME280;32099;53.588;10.176;2023-04-04T05:41:07;102756.97;;;0.28;65.17
46394;BME280;32099;53.588;10.176;2023-04-04T05:43:32;102750.56;;;0.31;65.23
46394;BME280;32099;53.588;10.176;2023-04-04T05:45:57;102748.69;;;0.33;65.58
46394;BME280;32099;53.588;10.176;2023-04-04T05:48:23;102756.81;;;0.32;65.47
46394;BME280;32099;53.588;10.176;2023-04-04T05:50:48;102757.69;;;0.32;65.46
46394;BME280;32099;53.588;10.176;2023-04-04T05:53:13;102763.88;;;0.34;65.71
46394;BME280;32099;53.588;10.176;2023-04-04T05:55:39;102759.22;;;0.38;65.61
46394;BME280;32099;53.588;10.176;2023-04-04T05:58:04;102760.91;;;0.40;66.54
46394;BME280;32099;53.588;10.176;2023-04-04T06:00:29;102759.44;;;0.33;66.53
46394;BME280;32099;53.588;10.176;2023-04-04T06:02:55;102757.69;;;0.32;67.08
46394;BME280;32099;53.588;10.176;2023-04-04T06:05:22;102764.00;;;0.31;66.95
46394;BME280;32099;53.588;10.176;2023-04-04T06:07:47;102763.06;;;0.32;67.22
46394;BME280;32099;53.588;10.176;2023-04-04T06:10:12;102766.34;;;0.39;66.08
46394;BME280;32099;53.588;10.176;2023-04-04T06:12:38;102763.25;;;0.48;65.71
46394;BME280;32099;53.588;10.176;2023-04-04T06:15:03;102747.16;;;0.48;66.40
46394;BME280;32099;53.588;10.176;2023-04-04T06:17:29;102758.41;;;0.56;65.56
46394;BME280;32099;53.588;10.176;2023-04-04T06:19:54;102763.44;;;0.64;66.07
46394;BME280;32099;53.588;10.176;2023-04-04T06:22:20;102750.03;;;0.64;67.16
46394;BME280;32099;53.588;10.176;2023-04-04T06:24:45;102758.16;;;0.63;65.99
46394;BME280;32099;53.588;10.176;2023-04-04T06:27:11;102758.88;;;0.66;67.38
46394;BME280;32099;53.588;10.176;2023-04-04T06:29:36;102765.84;;;0.70;66.57
46394;BME280;32099;53.588;10.176;2023-04-04T06:32:01;102762.09;;;0.74;66.75
46394;BME280;32099;53.588;10.176;2023-04-04T06:34:27;102768.06;;;0.81;65.76
46394;BME280;32099;53.588;10.176;2023-04-04T06:36:52;102766.91;;;0.87;65.87
46394;BME280;32099;53.588;10.176;2023-04-04T06:39:17;102765.03;;;0.89;66.71
46394;BME280;32099;53.588;10.176;2023-04-04T06:41:43;102763.88;;;0.95;65.92
46394;BME280;32099;53.588;10.176;2023-04-04T06:44:08;102768.69;;;1.07;65.93
46394;BME280;32099;53.588;10.176;2023-04-04T06:46:35;102762.06;;;1.14;65.55
46394;BME280;32099;53.588;10.176;2023-04-04T06:49:01;102756.34;;;1.22;64.97
46394;BME280;32099;53.588;10.176;2023-04-04T06:51:26;102756.84;;;1.30;64.99
46394;BME280;32099;53.588;10.176;2023-04-04T06:53:53;102749.34;;;1.37;64.65
46394;BME280;32099;53.588;10.176;2023-04-04T06:56:20;102762.28;;;1.48;64.75
46394;BME280;32099;53.588;10.176;2023-04-04T06:58:46;102760.00;;;1.58;64.66
46394;BME280;32099;53.588;10.176;2023-04-04T07:01:12;102761.25;;;1.69;64.12
46394;BME280;32099;53.588;10.176;2023-04-04T07:03:37;102752.25;;;1.88;64.66
46394;BME280;32099;53.588;10.176;2023-04-04T07:06:02;102757.72;;;2.04;64.30
46394;BME280;32099;53.588;10.176;2023-04-04T07:08:28;102760.59;;;2.19;63.94
46394;BME280;32099;53.588;10.176;2023-04-04T07:10:54;102760.41;;;2.39;63.29
46394;BME280;32099;53.588;10.176;2023-04-04T07:13:20;102764.66;;;2.61;62.92
46394;BME280;32099;53.588;10.176;2023-04-04T07:15:45;102750.13;;;2.81;62.73
46394;BME280;32099;53.588;10.176;2023-04-04T07:18:13;102749.75;;;3.05;61.52
46394;BME280;32099;53.588;10.176;2023-04-04T07:20:39;102746.75;;;3.27;60.94
46394;BME280;32099;53.588;10.176;2023-04-04T07:23:05;102743.00;;;3.46;60.35
46394;BME280;32099;53.588;10.176;2023-04-04T07:25:30;102752.47;;;3.69;60.37
46394;BME280;32099;53.588;10.176;2023-04-04T07:27:55;102744.16;;;3.88;60.40
46394;BME280;32099;53.588;10.176;2023-04-04T07:30:20;102743.94;;;4.07;58.13
46394;BME280;32099;53.588;10.176;2023-04-04T07:32:55;102747.69;;;4.35;58.15
46394;BME280;32099;53.588;10.176;2023-04-04T07:35:21;102743.41;;;4.61;57.66
46394;BME280;32099;53.588;10.176;2023-04-04T07:37:47;102740.97;;;4.86;57.87
46394;BME280;32099;53.588;10.176;2023-04-04T07:40:12;102741.47;;;5.07;57.12
46394;BME280;32099;53.588;10.176;2023-04-04T07:42:42;102736.03;;;5.21;57.31
46394;BME280;32099;53.588;10.176;2023-04-04T07:45:08;102735.13;;;5.35;55.65
46394;BME280;32099;53.588;10.176;2023-04-04T07:47:33;102742.25;;;5.51;55.72
46394;BME280;32099;53.588;10.176;2023-04-04T07:49:59;102736.09;;;5.76;53.10
46394;BME280;32099;53.588;10.176;2023-04-04T07:52:25;102736.56;;;5.96;54.09
46394;BME280;32099;53.588;10.176;2023-04-04T07:54:50;102733.72;;;6.12;52.76
46394;BME280;32099;53.588;10.176;2023-04-04T07:57:17;102737.13;;;6.28;50.61
46394;BME280;32099;53.588;10.176;2023-04-04T07:59:42;102738.88;;;6.42;52.86
46394;BME280;32099;53.588;10.176;2023-04-04T08:02:08;102734.97;;;6.59;51.15
46394;BME280;32099;53.588;10.176;2023-04-04T08:04:33;102731.06;;;6.76;52.40
46394;BME280;32099;53.588;10.176;2023-04-04T08:06:59;102722.34;;;6.97;51.62
46394;BME280;32099;53.588;10.176;2023-04-04T08:09:24;102731.25;;;7.12;50.54
46394;BME280;32099;53.588;10.176;2023-04-04T08:11:49;102724.69;;;7.28;50.93
46394;BME280;32099;53.588;10.176;2023-04-04T08:14:15;102730.09;;;7.40;50.05
46394;BME280;32099;53.588;10.176;2023-04-04T08:16:40;102721.75;;;7.55;49.93
46394;BME280;32099;53.588;10.176;2023-04-04T08:19:06;102714.78;;;7.64;48.93
46394;BME280;32099;53.588;10.176;2023-04-04T08:21:32;102721.31;;;7.61;49.27
46394;BME280;32099;53.588;10.176;2023-04-04T08:23:57;102722.88;;;7.52;48.14
46394;BME280;32099;53.588;10.176;2023-04-04T08:26:23;102722.91;;;7.39;46.28
46394;BME280;32099;53.588;10.176;2023-04-04T08:28:48;102712.34;;;7.23;47.22
46394;BME280;32099;53.588;10.176;2023-04-04T08:31:14;102713.19;;;7.24;47.30
46394;BME280;32099;53.588;10.176;2023-04-04T08:33:39;102718.06;;;7.32;49.97
46394;BME280;32099;53.588;10.176;2023-04-04T08:36:05;102725.44;;;7.54;48.63
46394;BME280;32099;53.588;10.176;2023-04-04T08:38:30;102724.59;;;7.78;48.45
46394;BME280;32099;53.588;10.176;2023-04-04T08:40:56;102715.19;;;8.06;49.35
46394;BME280;32099;53.588;10.176;2023-04-04T08:43:22;102717.00;;;8.30;47.82
46394;BME280;32099;53.588;10.176;2023-04-04T08:45:48;102718.25;;;8.26;44.68
46394;BME280;32099;53.588;10.176;2023-04-04T08:48:14;102720.72;;;7.93;43.72
46394;BME280;32099;53.588;10.176;2023-04-04T08:50:41;102721.16;;;7.76;45.25
46394;BME280;32099;53.588;10.176;2023-04-04T08:53:08;102717.81;;;7.83;49.23
46394;BME280;32099;53.588;10.176;2023-04-04T08:55:35;102716.53;;;8.00;46.75
46394;BME280;32099;53.588;10.176;2023-04-04T08:58:01;102713.06;;;8.34;46.74
46394;BME280;32099;53.588;10.176;2023-04-04T09:00:27;102710.66;;;8.76;45.07
46394;BME280;32099;53.588;10.176;2023-04-04T09:03:14;102714.63;;;9.18;47.21
46394;BME280;32099;53.588;10.176;2023-04-04T09:05:44;102712.81;;;9.51;45.77
46394;BME280;32099;53.588;10.176;2023-04-04T09:08:10;102711.56;;;9.55;45.31
46394;BME280;32099;53.588;10.176;2023-04-04T09:10:36;102706.47;;;9.62;46.16
46394;BME280;32099;53.588;10.176;2023-04-04T09:13:07;102712.16;;;9.91;45.63
46394;BME280;32099;53.588;10.176;2023-04-04T09:15:33;102715.66;;;10.14;42.30
46394;BME280;32099;53.588;10.176;2023-04-04T09:18:02;102715.47;;;10.27;43.34
46394;BME280;32099;53.588;10.176;2023-04-04T09:20:37;102704.50;;;10.39;40.67
46394;BME280;32099;53.588;10.176;2023-04-04T09:23:07;102703.53;;;10.40;37.27
46394;BME280;32099;53.588;10.176;2023-04-04T09:25:32;102701.22;;;10.02;35.69
46394;BME280;32099;53.588;10.176;2023-04-04T09:27:58;102699.88;;;9.97;39.04
46394;BME280;32099;53.588;10.176;2023-04-04T09:30:26;102708.25;;;9.84;37.37
46394;BME280;32099;53.588;10.176;2023-04-04T09:32:52;102700.63;;;9.78;42.45
46394;BME280;32099;53.588;10.176;2023-04-04T09:35:18;102700.81;;;9.86;41.63
46394;BME280;32099;53.588;10.176;2023-04-04T09:37:44;102696.56;;;9.93;41.23
46394;BME280;32099;53.588;10.176;2023-04-04T09:40:10;102695.75;;;10.02;40.85
46394;BME280;32099;53.588;10.176;2023-04-04T09:42:37;102691.19;;;10.24;40.48
46394;BME280;32099;53.588;10.176;2023-04-04T09:45:03;102683.59;;;10.39;40.07
46394;BME280;32099;53.588;10.176;2023-04-04T09:47:29;102687.63;;;10.45;42.00
46394;BME280;32099;53.588;10.176;2023-04-04T09:49:57;102678.97;;;10.71;41.77
46394;BME280;32099;53.588;10.176;2023-04-04T09:52:25;102685.06;;;10.84;40.85
46394;BME280;32099;53.588;10.176;2023-04-04T09:54:57;102685.66;;;10.88;39.91
46394;BME280;32099;53.588;10.176;2023-04-04T09:57:29;102689.81;;;10.82;38.01
46394;BME280;32099;53.588;10.176;2023-04-04T10:00:03;102684.25;;;10.62;34.11
46394;BME280;32099;53.588;10.176;2023-04-04T10:02:33;102679.50;;;10.33;38.09
46394;BME280;32099;53.588;10.176;2023-04-04T10:05:04;102678.03;;;10.29;34.87
46394;BME280;32099;53.588;10.176;2023-04-04T10:07:34;102671.78;;;10.17;35.08
46394;BME280;32099;53.588;10.176;2023-04-04T10:10:04;102667.13;;;10.08;39.13
46394;BME280;32099;53.588;10.176;2023-04-04T10:12:30;102669.59;;;10.11;38.56
46394;BME280;32099;53.588;10.176;2023-04-04T10:14:57;102666.72;;;10.34;40.55
46394;BME280;32099;53.588;10.176;2023-04-04T10:17:24;102675.16;;;10.31;33.34
46394;BME280;32099;53.588;10.176;2023-04-04T10:19:54;102674.94;;;10.01;37.21
46394;BME280;32099;53.588;10.176;2023-04-04T10:22:23;102666.84;;;9.90;37.30
46394;BME280;32099;53.588;10.176;2023-04-04T10:24:49;102671.38;;;10.01;36.27
46394;BME280;32099;53.588;10.176;2023-04-04T10:27:17;102670.41;;;10.23;36.33
46394;BME280;32099;53.588;10.176;2023-04-04T10:29:43;102664.41;;;10.51;37.22
46394;BME280;32099;53.588;10.176;2023-04-04T10:32:09;102662.81;;;10.79;33.54
46394;BME280;32099;53.588;10.176;2023-04-04T10:34:49;102664.06;;;10.75;35.01
46394;BME280;32099;53.588;10.176;2023-04-04T10:37:33;102646.75;;;10.86;37.66
46394;BME280;32099;53.588;10.176;2023-04-04T10:40:08;102659.03;;;11.11;36.82
46394;BME280;32099;53.588;10.176;2023-04-04T10:42:38;102654.88;;;11.17;35.04
46394;BME280;32099;53.588;10.176;2023-04-04T10:45:06;102650.53;;;11.04;35.44
46394;BME280;32099;53.588;10.176;2023-04-04T10:47:33;102643.59;;;11.00;34.52
46394;BME280;32099;53.588;10.176;2023-04-04T10:50:00;102647.53;;;11.07;34.86
46394;BME280;32099;53.588;10.176;2023-04-04T10:52:28;102646.53;;;11.08;37.94
46394;BME280;32099;53.588;10.176;2023-04-04T10:54:59;102645.22;;;11.13;37.44
46394;BME280;32099;53.588;10.176;2023-04-04T10:57:30;102643.63;;;11.10;37.29
46394;BME280;32099;53.588;10.176;2023-04-04T11:10:24;102635.72;;;10.35;37.53
46394;BME280;32099;53.588;10.176;2023-04-04T11:12:55;102631.53;;;10.52;35.10
46394;BME280;32099;53.588;10.176;2023-04-04T11:15:23;102631.19;;;10.45;35.76
46394;BME280;32099;53.588;10.176;2023-04-04T11:20:21;102622.06;;;10.56;39.36
46394;BME280;32099;53.588;10.176;2023-04-04T11:23:04;102622.81;;;10.68;38.88
46394;BME280;32099;53.588;10.176;2023-04-04T11:27:57;102606.50;;;10.78;37.94
46394;BME280;32099;53.588;10.176;2023-04-04T11:30:23;102604.47;;;10.70;36.78
46394;BME280;32099;53.588;10.176;2023-04-04T11:32:49;102616.09;;;10.41;34.59
46394;BME280;32099;53.588;10.176;2023-04-04T11:35:15;102610.28;;;10.03;33.70
46394;BME280;32099;53.588;10.176;2023-04-04T11:38:02;102612.63;;;9.87;37.59
46394;BME280;32099;53.588;10.176;2023-04-04T11:40:37;102611.25;;;10.02;37.38
46394;BME280;32099;53.588;10.176;2023-04-04T11:43:10;102605.28;;;10.09;35.82
46394;BME280;32099;53.588;10.176;2023-04-04T11:45:37;102596.38;;;10.07;35.61
46394;BME280;32099;53.588;10.176;2023-04-04T11:48:08;102592.19;;;10.02;37.98
46394;BME280;32099;53.588;10.176;2023-04-04T11:50:35;102596.63;;;10.03;36.12
46394;BME280;32099;53.588;10.176;2023-04-04T11:53:06;102588.19;;;10.07;37.20
46394;BME280;32099;53.588;10.176;2023-04-04T11:55:37;102585.66;;;10.15;37.91
46394;BME280;32099;53.588;10.176;2023-04-04T11:58:14;102579.13;;;10.27;33.40
46394;BME280;32099;53.588;10.176;2023-04-04T12:00:40;102578.06;;;10.18;36.15
46394;BME280;32099;53.588;10.176;2023-04-04T12:03:08;102582.31;;;10.32;38.58
46394;BME280;32099;53.588;10.176;2023-04-04T12:05:39;102583.84;;;10.46;34.48
46394;BME280;32099;53.588;10.176;2023-04-04T12:08:07;102580.38;;;10.44;33.47
46394;BME280;32099;53.588;10.176;2023-04-04T12:10:35;102578.53;;;10.45;38.50
46394;BME280;32099;53.588;10.176;2023-04-04T12:13:04;102580.47;;;10.64;38.75
46394;BME280;32099;53.588;10.176;2023-04-04T12:15:31;102578.22;;;10.79;36.52
46394;BME280;32099;53.588;10.176;2023-04-04T12:18:01;102575.28;;;10.71;31.97
46394;BME280;32099;53.588;10.176;2023-04-04T12:20:46;102572.53;;;10.30;32.66
46394;BME280;32099;53.588;10.176;2023-04-04T12:23:12;102575.06;;;10.22;38.36
46394;BME280;32099;53.588;10.176;2023-04-04T12:25:40;102575.91;;;10.43;38.45
46394;BME280;32099;53.588;10.176;2023-04-04T12:28:08;102572.28;;;10.64;38.91
46394;BME280;32099;53.588;10.176;2023-04-04T12:30:35;102572.91;;;10.87;36.90
46394;BME280;32099;53.588;10.176;2023-04-04T12:33:02;102569.78;;;11.02;35.45
46394;BME280;32099;53.588;10.176;2023-04-04T12:35:28;102553.38;;;11.11;38.48
46394;BME280;32099;53.588;10.176;2023-04-04T12:37:56;102559.00;;;11.30;35.33
46394;BME280;32099;53.588;10.176;2023-04-04T12:40:32;102556.28;;;11.39;38.39
46394;BME280;32099;53.588;10.176;2023-04-04T12:43:02;102551.66;;;11.60;38.66
46394;BME280;32099;53.588;10.176;2023-04-04T12:45:27;102541.31;;;11.63;35.29
46394;BME280;32099;53.588;10.176;2023-04-04T12:47:56;102539.44;;;11.44;35.42
46394;BME280;32099;53.588;10.176;2023-04-04T12:50:25;102537.31;;;11.38;36.52
46394;BME280;32099;53.588;10.176;2023-04-04T12:52:51;102538.00;;;11.40;38.29
46394;BME280;32099;53.588;10.176;2023-04-04T12:55:20;102534.59;;;11.38;34.29
46394;BME280;32099;53.588;10.176;2023-04-04T12:57:47;102533.00;;;11.25;33.02
46394;BME280;32099;53.588;10.176;2023-04-04T13:00:12;102529.66;;;11.22;37.22